Time;durP1;ratioP1;P1;durP2;ratioP2;P2;SDS_P1;SDS_P2;PMS_P1;PMS_P2;Temp;Humidity;BMP_temperature;BMP_pressure;BME280_temperature;BME280_humidity;BME280_pressure;Samples;Min_cycle;Max_cycle;Signal;HPM_P1;HPM_P2
2022/11/07 00:01:14;;;;;;;32.08;16.60;;;12.90;99.90;;;;;;5052811;28;20087;-68
2022/11/07 00:04:18;;;;;;;40.28;16.42;;;12.80;99.80;;;;;;5053136;28;20044;-68
2022/11/07 00:07:22;;;;;;;35.55;17.95;;;12.80;99.90;;;;;;5052853;28;20492;-68
2022/11/07 00:10:27;;;;;;;33.63;16.42;;;12.80;99.90;;;;;;5052980;28;20056;-68
2022/11/07 00:13:31;;;;;;;30.00;15.88;;;12.70;99.80;;;;;;5052894;28;20048;-67
2022/11/07 00:16:35;;;;;;;33.22;16.60;;;10.20;99.20;;;;;;5052603;28;20056;-67
2022/11/07 00:19:39;;;;;;;40.10;16.35;;;12.80;99.90;;;;;;5052567;28;20044;-67
2022/11/07 00:22:43;;;;;;;30.23;15.30;;;12.70;99.90;;;;;;5052964;28;20063;-66
2022/11/07 00:25:48;;;;;;;35.00;16.23;;;13.90;99.90;;;;;;5052493;28;20056;-68
2022/11/07 00:28:52;;;;;;;29.35;15.18;;;13.50;99.90;;;;;;5052423;28;20036;-69
2022/11/07 00:31:55;;;;;;;36.58;15.75;;;12.50;99.70;;;;;;5052533;28;20048;-68
2022/11/07 00:34:59;;;;;;;35.88;17.42;;;12.50;99.90;;;;;;5052285;28;20043;-68
2022/11/07 00:38:04;;;;;;;28.60;14.90;;;;;;;;;;5052596;28;20056;-68
2022/11/07 00:41:09;;;;;;;33.47;16.98;;;8.70;99.20;;;;;;5052313;28;20044;-68
2022/11/07 00:44:12;;;;;;;37.00;15.07;;;11.90;99.90;;;;;;5052373;28;20056;-68
2022/11/07 00:47:16;;;;;;;25.25;14.73;;;12.00;99.90;;;;;;5052002;28;20036;-68
2022/11/07 00:50:20;;;;;;;25.83;14.02;;;12.10;99.90;;;;;;5051704;28;20056;-68
2022/11/07 00:53:24;;;;;;;28.05;14.27;;;12.10;99.90;;;;;;5052139;28;20040;-68
2022/11/07 00:56:28;;;;;;;30.83;13.98;;;12.00;99.90;;;;;;5052093;28;20047;-67
2022/11/07 00:59:32;;;;;;;24.77;13.18;;;;;;;;;;5052092;28;20064;-67
2022/11/07 01:02:36;;;;;;;20.75;12.85;;;10.40;99.90;;;;;;5052650;28;20044;-67
2022/11/07 01:05:40;;;;;;;25.60;13.45;;;12.10;99.90;;;;;;5052054;28;20043;-66
2022/11/07 01:08:44;;;;;;;23.30;13.07;;;12.00;99.90;;;;;;5051960;28;20044;-67
2022/11/07 01:11:49;;;;;;;20.70;11.45;;;12.10;99.90;;;;;;5051979;28;20044;-67
2022/11/07 01:14:53;;;;;;;18.48;11.18;;;12.10;99.90;;;;;;5051825;28;20056;-67
2022/11/07 01:17:57;;;;;;;25.77;12.18;;;14.50;99.90;;;;;;5051990;28;20400;-67
2022/11/07 01:21:08;;;;;;;20.40;11.43;;;12.10;99.90;;;;;;5051952;28;20040;-68
2022/11/07 01:24:13;;;;;;;21.00;11.27;;;13.50;99.90;;;;;;5051822;28;20049;-67
2022/11/07 01:27:17;;;;;;;20.65;11.27;;;12.10;99.90;;;;;;5051752;28;20044;-67
2022/11/07 01:30:21;;;;;;;22.73;12.38;;;12.30;99.90;;;;;;5051372;28;20047;-67
2022/11/07 01:33:24;;;;;;;19.27;11.18;;;12.30;99.90;;;;;;5051447;28;20036;-68
2022/11/07 01:36:29;;;;;;;19.52;11.77;;;12.40;99.90;;;;;;5051335;28;20393;-67
2022/11/07 01:39:33;;;;;;;23.00;12.55;;;12.30;99.90;;;;;;5051577;28;20046;-67
2022/11/07 01:42:37;;;;;;;22.45;11.73;;;12.30;99.90;;;;;;5051124;28;20044;-67
2022/11/07 01:45:41;;;;;;;21.55;11.73;;;12.20;99.90;;;;;;5051274;28;20040;-67
2022/11/07 01:49:08;;;;;;;23.00;11.30;;;12.70;99.90;;;;;;5051022;28;20508;-67
2022/11/07 01:52:34;;;;;;;20.65;11.13;;;12.30;99.90;;;;;;5050948;28;20389;-67
2022/11/07 01:55:37;;;;;;;23.88;11.57;;;12.90;99.90;;;;;;5050989;28;20051;-67
2022/11/07 01:58:43;;;;;;;21.75;9.65;;;12.10;99.90;;;;;;5050528;28;20393;-67
2022/11/07 02:01:47;;;;;;;19.02;10.32;;;12.00;99.90;;;;;;5051267;28;20508;-67
2022/11/07 02:04:55;;;;;;;18.05;9.45;;;12.10;99.90;;;;;;5050986;28;20060;-67
2022/11/07 02:08:02;;;;;;;14.52;8.75;;;12.20;99.90;;;;;;5050821;28;20044;-68
2022/11/07 02:11:08;;;;;;;13.07;8.02;;;12.30;99.90;;;;;;5050925;28;20044;-68
2022/11/07 02:14:16;;;;;;;21.08;7.80;;;12.30;99.90;;;;;;5051010;28;20040;-69
2022/11/07 02:17:20;;;;;;;18.38;7.68;;;12.40;99.90;;;;;;5050921;28;20056;-68
2022/11/07 02:20:24;;;;;;;13.13;8.05;;;12.40;99.90;;;;;;5051026;28;20048;-68
2022/11/07 02:23:42;;;;;;;11.15;6.80;;;12.00;99.90;;;;;;5051142;28;20052;-68
2022/11/07 02:26:46;;;;;;;14.32;6.93;;;;;;;;;;5050831;28;20511;-68
2022/11/07 02:29:59;;;;;;;17.83;7.75;;;12.40;99.90;;;;;;5050785;28;20041;-68
2022/11/07 02:33:03;;;;;;;14.85;6.90;;;12.30;99.90;;;;;;5050893;28;20040;-68
2022/11/07 02:36:13;;;;;;;15.65;7.95;;;12.50;99.90;;;;;;5050633;28;20123;-69
2022/11/07 02:39:18;;;;;;;14.32;7.97;;;12.50;99.90;;;;;;5050743;28;20044;-68
2022/11/07 02:42:22;;;;;;;13.82;7.90;;;12.40;99.90;;;;;;5050623;28;20048;-68
2022/11/07 02:45:32;;;;;;;13.55;7.25;;;12.40;99.90;;;;;;5050969;28;20508;-68
2022/11/07 02:48:43;;;;;;;15.02;8.02;;;12.50;99.90;;;;;;5050607;28;20048;-68
2022/11/07 02:51:47;;;;;;;16.53;8.37;;;12.50;99.90;;;;;;5050853;28;20143;-68
2022/11/07 02:54:51;;;;;;;14.48;7.95;;;12.60;99.90;;;;;;5050658;28;20037;-68
2022/11/07 02:57:55;;;;;;;14.88;7.43;;;12.60;99.90;;;;;;5050489;28;20060;-68
2022/11/07 03:01:06;;;;;;;14.68;6.88;;;12.60;99.90;;;;;;5049928;28;20042;-68
2022/11/07 03:04:10;;;;;;;15.82;6.82;;;12.60;99.90;;;;;;5050536;28;20052;-68
2022/11/07 03:07:15;;;;;;;14.68;6.93;;;12.60;99.90;;;;;;5050560;28;20045;-68
2022/11/07 03:10:18;;;;;;;12.77;6.88;;;12.60;99.90;;;;;;5052338;28;20052;-68
2022/11/07 03:13:22;;;;;;;15.32;7.32;;;12.50;99.90;;;;;;5054137;28;20400;-68
2022/11/07 03:16:26;;;;;;;13.13;7.30;;;12.60;99.90;;;;;;5054003;28;20060;-68
2022/11/07 03:19:30;;;;;;;13.15;7.15;;;12.60;99.90;;;;;;5054063;28;20047;-68
2022/11/07 03:22:34;;;;;;;13.18;7.13;;;12.60;99.90;;;;;;5054014;28;20044;-68
2022/11/07 03:25:38;;;;;;;14.55;7.55;;;12.60;99.90;;;;;;5053912;28;20044;-68
2022/11/07 03:28:42;;;;;;;11.38;7.80;;;12.60;99.90;;;;;;5053784;28;20425;-68
2022/11/07 03:31:46;;;;;;;13.38;7.70;;;12.50;99.90;;;;;;5053507;28;20496;-68
2022/11/07 03:34:50;;;;;;;11.35;7.15;;;;;;;;;;5053735;28;20051;-68
2022/11/07 03:37:54;;;;;;;14.20;7.10;;;12.30;99.90;;;;;;5053404;28;20045;-68
2022/11/07 03:40:58;;;;;;;14.65;6.97;;;12.40;99.90;;;;;;5053459;28;20044;-68
2022/11/07 03:44:02;;;;;;;13.73;7.40;;;12.30;99.90;;;;;;5053358;28;20420;-68
2022/11/07 03:47:06;;;;;;;13.07;7.05;;;12.40;99.90;;;;;;5053348;28;20044;-68
2022/11/07 03:50:14;;;;;;;16.27;7.05;;;12.40;99.90;;;;;;5052997;28;20515;-69
2022/11/07 03:53:18;;;;;;;20.27;8.68;;;12.30;99.90;;;;;;5053611;28;20530;-68
2022/11/07 03:56:21;;;;;;;14.48;7.35;;;12.30;99.90;;;;;;5053257;28;20562;-68
2022/11/07 03:59:25;;;;;;;17.48;7.93;;;12.20;99.90;;;;;;5053504;28;20039;-68
2022/11/07 04:02:29;;;;;;;14.10;7.75;;;14.00;99.90;;;;;;5053154;28;20052;-69
2022/11/07 04:05:33;;;;;;;17.63;7.47;;;12.20;99.90;;;;;;5053117;28;20071;-69
2022/11/07 04:08:37;;;;;;;15.48;7.80;;;15.30;99.90;;;;;;5053003;28;20044;-69
2022/11/07 04:18:26;;;;;;;13.50;7.65;;;12.20;99.90;;;;;;5052979;28;20075;-67
2022/11/07 04:21:30;;;;;;;12.38;7.70;;;13.70;99.90;;;;;;5051506;28;20063;-67
2022/11/07 04:24:34;;;;;;;14.98;8.13;;;12.40;99.90;;;;;;5052707;28;20044;-67
2022/11/07 04:27:43;;;;;;;16.13;8.20;;;12.40;99.90;;;;;;5052972;28;20035;-67
2022/11/07 04:30:47;;;;;;;15.90;8.57;;;12.10;99.90;;;;;;5052632;28;20048;-66
2022/11/07 04:33:51;;;;;;;14.43;7.22;;;8.20;99.90;;;;;;5052392;28;20507;-67
2022/11/07 04:36:55;;;;;;;18.20;8.20;;;;;;;;;;5052478;28;20053;-67
2022/11/07 04:39:59;;;;;;;15.63;8.20;;;12.00;99.90;;;;;;5052141;28;20048;-67
2022/11/07 04:43:07;;;;;;;13.60;7.40;;;12.00;99.90;;;;;;5052309;28;20500;-67
2022/11/07 04:46:12;;;;;;;18.27;7.75;;;12.10;99.90;;;;;;5053092;28;20040;-68
2022/11/07 04:49:16;;;;;;;12.40;8.20;;;12.10;99.90;;;;;;5052086;28;20052;-68
2022/11/07 04:52:20;;;;;;;16.67;8.75;;;12.10;99.90;;;;;;5052480;28;20051;-68
2022/11/07 04:55:26;;;;;;;19.08;8.50;;;12.30;99.90;;;;;;5052326;28;20044;-68
2022/11/07 04:58:30;;;;;;;16.00;8.43;;;12.20;99.90;;;;;;5052381;28;20048;-68
2022/11/07 05:01:34;;;;;;;22.50;7.57;;;12.20;99.90;;;;;;5052127;28;20147;-68
2022/11/07 05:04:38;;;;;;;15.68;7.38;;;12.20;99.90;;;;;;5052137;28;20048;-68
2022/11/07 05:07:43;;;;;;;15.43;7.93;;;12.20;99.90;;;;;;5051888;28;20059;-68
2022/11/07 05:10:47;;;;;;;19.15;8.48;;;12.30;99.90;;;;;;5051772;28;20048;-68
2022/11/07 05:13:51;;;;;;;15.23;7.93;;;12.20;99.90;;;;;;5052142;28;20045;-68
2022/11/07 05:16:55;;;;;;;16.30;8.00;;;;;;;;;;5051611;28;20056;-68
2022/11/07 05:19:59;;;;;;;17.38;7.82;;;12.30;99.90;;;;;;5051828;28;20037;-68
2022/11/07 05:23:19;;;;;;;17.67;7.70;;;12.10;99.90;;;;;;5051714;28;20047;-68
2022/11/07 05:26:23;;;;;;;18.83;8.77;;;12.20;99.90;;;;;;5051420;28;20064;-68
2022/11/07 05:29:27;;;;;;;19.13;8.80;;;12.20;99.90;;;;;;5051371;28;20116;-68
2022/11/07 05:32:33;;;;;;;25.45;11.93;;;12.20;99.90;;;;;;5050958;28;20039;-68
2022/11/07 05:35:37;;;;;;;24.27;11.23;;;12.20;99.90;;;;;;5051128;28;20104;-68
2022/11/07 05:38:43;;;;;;;17.25;9.70;;;12.50;99.90;;;;;;5051610;28;20056;-68
2022/11/07 05:41:47;;;;;;;20.80;9.77;;;12.30;99.90;;;;;;5051419;28;20385;-68
2022/11/07 05:44:51;;;;;;;20.27;10.35;;;12.20;99.90;;;;;;5051489;28;20048;-68
2022/11/07 05:48:00;;;;;;;23.80;11.68;;;12.20;99.90;;;;;;5051448;28;20063;-68
2022/11/07 05:51:06;;;;;;;24.58;11.52;;;12.20;99.90;;;;;;5050961;28;20131;-68
2022/11/07 05:54:11;;;;;;;24.13;10.82;;;12.20;99.90;;;;;;5051080;28;20049;-68
2022/11/07 05:57:15;;;;;;;23.38;10.82;;;12.10;99.90;;;;;;5051162;28;20071;-68
2022/11/07 06:00:19;;;;;;;25.42;11.63;;;12.30;99.90;;;;;;5050948;28;20048;-68
2022/11/07 06:03:23;;;;;;;27.85;10.23;;;12.20;99.90;;;;;;5051223;28;20116;-68
2022/11/07 06:06:27;;;;;;;19.67;9.98;;;12.10;99.90;;;;;;5051069;28;20048;-68
2022/11/07 06:09:31;;;;;;;27.50;9.98;;;12.20;99.90;;;;;;5051264;28;20595;-68
2022/11/07 06:12:34;;;;;;;28.63;10.90;;;12.20;99.90;;;;;;5050847;28;20044;-68
2022/11/07 06:15:39;;;;;;;26.33;11.57;;;12.50;99.90;;;;;;5051198;28;20120;-68
2022/11/07 06:18:43;;;;;;;27.20;10.70;;;12.30;99.90;;;;;;5050793;28;20052;-68
2022/11/07 06:21:47;;;;;;;27.60;12.50;;;12.40;99.90;;;;;;5050836;28;20040;-68
2022/11/07 06:24:51;;;;;;;27.70;10.85;;;12.50;99.90;;;;;;5050911;28;20063;-68
2022/11/07 06:28:05;;;;;;;24.42;10.50;;;13.80;99.90;;;;;;5050882;28;20048;-68
2022/11/07 06:31:10;;;;;;;26.42;10.60;;;14.10;99.90;;;;;;5050843;28;20052;-68
2022/11/07 06:34:14;;;;;;;22.52;10.60;;;12.70;99.90;;;;;;5050464;28;20052;-66
2022/11/07 06:37:18;;;;;;;31.33;12.13;;;12.80;99.90;;;;;;5050508;28;20068;-66
2022/11/07 06:40:22;;;;;;;34.97;13.98;;;13.00;99.90;;;;;;5049834;28;20519;-66
2022/11/07 06:43:26;;;;;;;29.52;13.20;;;13.10;99.90;;;;;;5050927;28;20048;-66
2022/11/07 06:46:30;;;;;;;23.08;12.73;;;13.30;99.90;;;;;;5054481;28;20551;-66
2022/11/07 06:49:34;;;;;;;25.15;11.50;;;13.50;99.90;;;;;;5054472;28;20048;-66
2022/11/07 06:52:38;;;;;;;39.25;12.82;;;13.60;99.90;;;;;;5054345;28;20052;-66
2022/11/07 06:55:42;;;;;;;25.60;10.40;;;13.80;99.90;;;;;;5054413;28;20503;-66
2022/11/07 06:58:46;;;;;;;19.65;9.70;;;13.90;99.90;;;;;;5054141;28;20511;-64
2022/11/07 07:01:50;;;;;;;20.98;8.80;;;14.00;99.90;;;;;;5054040;28;20040;-66
2022/11/07 07:04:54;;;;;;;17.30;8.63;;;13.90;99.90;;;;;;5054303;28;20040;-65
2022/11/07 07:07:58;;;;;;;24.40;10.00;;;14.00;99.90;;;;;;5054170;28;20051;-64
2022/11/07 07:11:05;;;;;;;18.90;8.95;;;14.20;99.90;;;;;;5054039;28;20052;-65
2022/11/07 07:14:08;;;;;;;16.30;8.90;;;14.40;99.90;;;;;;5053922;28;20035;-64
2022/11/07 07:17:12;;;;;;;24.65;9.30;;;14.70;99.90;;;;;;5054642;28;20052;-65
2022/11/07 07:20:16;;;;;;;16.35;8.77;;;15.00;99.90;;;;;;5053873;28;20052;-64
2022/11/07 07:23:20;;;;;;;21.05;9.63;;;15.30;99.90;;;;;;5053844;28;20400;-65
2022/11/07 07:26:24;;;;;;;15.88;9.45;;;15.50;99.90;;;;;;5054212;28;20515;-65
2022/11/07 07:29:28;;;;;;;18.27;8.13;;;15.70;99.60;;;;;;5054239;28;20040;-67
2022/11/07 07:32:34;;;;;;;18.50;7.93;;;15.90;99.10;;;;;;5054286;28;20135;-65
2022/11/07 07:35:38;;;;;;;13.65;7.18;;;16.10;98.60;;;;;;5054014;28;20059;-65
2022/11/07 07:38:42;;;;;;;12.10;5.95;;;16.30;98.40;;;;;;5053450;28;20048;-65
2022/11/07 07:41:48;;;;;;;12.98;6.70;;;16.50;97.60;;;;;;5053448;28;20107;-64
2022/11/07 07:44:57;;;;;;;9.93;6.43;;;16.60;97.30;;;;;;5052334;28;20067;-65
2022/11/07 07:48:02;;;;;;;11.88;6.22;;;16.80;97.10;;;;;;5053507;28;20044;-67
2022/11/07 07:51:06;;;;;;;12.05;6.40;;;17.00;96.70;;;;;;5052897;28;20075;-69
2022/11/07 07:54:10;;;;;;;14.90;6.47;;;17.10;96.40;;;;;;5053154;28;20060;-66
2022/11/07 07:57:14;;;;;;;15.20;7.22;;;17.20;96.00;;;;;;5052732;28;20107;-68
2022/11/07 08:00:19;;;;;;;14.75;7.18;;;17.30;95.70;;;;;;5052324;28;20068;-66
2022/11/07 08:03:24;;;;;;;13.60;6.57;;;17.40;95.60;;;;;;5051492;28;20056;-66
2022/11/07 08:06:28;;;;;;;12.50;5.85;;;17.50;95.70;;;;;;5053257;28;20052;-67
2022/11/07 08:09:35;;;;;;;11.70;5.50;;;17.60;95.20;;;;;;5052680;28;20044;-67
2022/11/07 08:12:47;;;;;;;10.45;6.15;;;17.60;95.20;;;;;;5052548;28;20052;-66
2022/11/07 08:15:52;;;;;;;9.38;5.15;;;17.70;95.00;;;;;;5052769;28;20043;-66
2022/11/07 08:18:56;;;;;;;8.00;4.57;;;17.90;94.90;;;;;;5052135;28;20048;-66
2022/11/07 08:21:59;;;;;;;6.90;4.72;;;17.90;94.80;;;;;;5052831;28;20395;-66
2022/11/07 08:25:05;;;;;;;13.23;4.63;;;18.00;94.50;;;;;;5053197;28;20052;-66
2022/11/07 08:28:09;;;;;;;10.38;4.75;;;18.10;94.40;;;;;;5053469;28;20036;-66
2022/11/07 08:31:13;;;;;;;9.68;4.07;;;18.20;94.50;;;;;;5053128;28;20515;-67
2022/11/07 08:34:17;;;;;;;9.88;4.22;;;18.30;94.60;;;;;;5053977;28;20111;-67
2022/11/07 08:37:22;;;;;;;7.20;3.60;;;18.40;94.40;;;;;;5052325;28;20044;-67
2022/11/07 08:40:26;;;;;;;11.63;4.00;;;18.50;94.20;;;;;;5052755;28;20107;-68
2022/11/07 08:43:30;;;;;;;7.88;3.53;;;18.60;94.00;;;;;;5052138;28;20044;-66
2022/11/07 08:46:34;;;;;;;6.82;3.78;;;18.70;93.70;;;;;;5051993;28;20040;-67
2022/11/07 08:49:38;;;;;;;10.48;4.13;;;18.80;93.60;;;;;;5051288;28;20056;-67
2022/11/07 08:52:42;;;;;;;7.05;3.50;;;18.80;93.70;;;;;;5052398;28;20059;-67
2022/11/07 08:55:46;;;;;;;6.72;3.70;;;18.90;93.90;;;;;;5052178;28;20044;-68
2022/11/07 08:58:50;;;;;;;10.65;4.35;;;19.00;93.90;;;;;;5051446;28;20064;-68
2022/11/07 09:01:54;;;;;;;8.20;4.55;;;19.10;93.80;;;;;;5051337;28;20060;-67
2022/11/07 09:04:58;;;;;;;10.57;4.00;;;19.20;93.90;;;;;;5051505;28;20040;-65
2022/11/07 09:08:02;;;;;;;7.20;3.20;;;19.30;93.80;;;;;;5050502;28;20135;-67
2022/11/07 09:11:07;;;;;;;9.52;4.65;;;19.40;93.90;;;;;;5050710;28;20405;-67
2022/11/07 09:14:10;;;;;;;6.68;3.45;;;19.50;93.30;;;;;;5051493;28;20163;-66
2022/11/07 09:17:14;;;;;;;6.65;2.75;;;19.60;93.10;;;;;;5051482;28;20063;-67
2022/11/07 09:20:18;;;;;;;5.05;2.60;;;19.80;92.70;;;;;;5050535;28;20148;-67
2022/11/07 09:23:22;;;;;;;7.13;2.50;;;19.90;92.50;;;;;;5050372;28;20040;-67
2022/11/07 09:26:26;;;;;;;8.48;2.97;;;20.00;92.00;;;;;;5051233;28;20056;-66
2022/11/07 09:29:30;;;;;;;7.43;2.95;;;20.10;91.60;;;;;;5051393;28;20043;-67
2022/11/07 09:32:34;;;;;;;4.38;2.03;;;20.10;91.40;;;;;;5050538;28;20044;-67
2022/11/07 09:35:38;;;;;;;4.63;2.08;;;20.20;91.10;;;;;;5051471;28;20048;-66
2022/11/07 09:38:42;;;;;;;3.85;2.08;;;20.30;91.10;;;;;;5049981;28;20400;-67
2022/11/07 09:42:14;;;;;;;8.02;2.03;;;20.40;91.00;;;;;;5051352;28;20048;-67
2022/11/07 09:45:18;;;;;;;;;;;20.60;90.40;;;;;;5051547;28;20044;-69
2022/11/07 09:48:24;;;;;;;8.57;2.78;;;20.70;90.40;;;;;;5051053;28;19916;-68
2022/11/07 09:51:35;;;;;;;11.38;3.22;;;20.80;90.40;;;;;;5050392;28;20056;-68
2022/11/07 09:54:46;;;;;;;6.70;2.45;;;20.90;90.00;;;;;;5050813;28;20107;-67
2022/11/07 09:57:53;;;;;;;12.60;2.75;;;21.10;90.10;;;;;;5050808;28;20056;-66
2022/11/07 10:01:01;;;;;;;8.20;2.70;;;21.20;89.70;;;;;;5050824;28;20044;-68
2022/11/07 10:04:05;;;;;;;6.63;2.05;;;21.30;89.50;;;;;;5050973;28;20056;-66
2022/11/07 10:07:29;;;;;;;10.35;2.33;;;21.40;88.20;;;;;;5051133;28;20036;-67
2022/11/07 10:10:45;;;;;;;6.05;3.20;;;21.50;87.70;;;;;;5049390;28;20052;-68
2022/11/07 10:14:19;;;;;;;5.82;2.30;;;21.60;87.20;;;;;;5050822;28;20044;-67
2022/11/07 10:17:46;;;;;;;7.07;2.45;;;21.60;87.40;;;;;;5050994;28;20048;-68
2022/11/07 10:21:08;;;;;;;4.00;1.30;;;21.70;87.70;;;;;;5054768;28;20396;-67
2022/11/07 10:24:11;;;;;;;5.70;2.17;;;21.80;87.30;;;;;;5055172;28;20044;-67
2022/11/07 10:27:15;;;;;;;4.95;2.00;;;21.90;87.10;;;;;;5054727;28;20108;-66
2022/11/07 10:30:20;;;;;;;4.22;2.00;;;22.00;87.40;;;;;;5054931;28;20040;-76
2022/11/07 10:33:45;;;;;;;4.18;2.10;;;22.00;87.80;;;;;;5054017;28;20044;-68
2022/11/07 10:36:50;;;;;;;9.63;2.17;;;22.00;87.90;;;;;;5054669;28;20041;-68
2022/11/07 10:39:54;;;;;;;4.05;2.40;;;22.10;87.70;;;;;;5054293;28;20055;-68
2022/11/07 10:43:01;;;;;;;8.95;2.50;;;22.00;88.00;;;;;;5053338;28;20681;-68
2022/11/07 10:46:24;;;;;;;3.33;1.67;;;22.00;87.70;;;;;;5054360;28;20047;-69
2022/11/07 10:49:30;;;;;;;3.80;1.80;;;21.90;88.00;;;;;;5054162;28;20064;-68
2022/11/07 10:52:34;;;;;;;4.90;1.98;;;22.00;88.60;;;;;;5054202;28;20056;-68
2022/11/07 10:55:44;;;;;;;5.22;1.70;;;21.90;88.60;;;;;;5053297;28;20047;-68
2022/11/07 10:58:48;;;;;;;6.70;2.40;;;21.90;88.00;;;;;;5053944;28;20063;-68
2022/11/07 11:01:54;;;;;;;4.10;2.30;;;21.80;88.30;;;;;;5054243;28;20040;-68
2022/11/07 11:05:01;;;;;;;4.57;2.13;;;21.80;88.60;;;;;;5054245;28;20048;-67
2022/11/07 11:08:30;;;;;;;7.97;2.10;;;21.70;88.20;;;;;;5053738;28;20046;-68
2022/11/07 11:11:35;;;;;;;5.88;1.77;;;21.70;87.30;;;;;;5054112;28;20051;-68
2022/11/07 11:14:40;;;;;;;5.47;1.83;;;21.60;87.80;;;;;;5054228;28;20413;-68
2022/11/07 11:17:45;;;;;;;4.32;1.90;;;21.50;88.10;;;;;;5054096;28;20052;-68
2022/11/07 11:21:01;;;;;;;3.15;1.75;;;21.50;88.20;;;;;;5053934;28;20044;-68
2022/11/07 11:24:36;;;;;;;3.97;1.80;;;21.40;88.90;;;;;;5053688;28;20071;-68
2022/11/07 11:27:41;;;;;;;2.53;1.48;;;21.40;89.40;;;;;;5052996;28;20051;-68
2022/11/07 11:30:47;;;;;;;7.30;2.00;;;21.40;89.40;;;;;;5052278;28;20039;-68
2022/11/07 11:34:17;;;;;;;5.88;2.15;;;21.30;88.60;;;;;;5053440;28;20047;-68
2022/11/07 11:37:23;;;;;;;2.53;1.45;;;21.30;89.30;;;;;;5053301;28;20052;-68
2022/11/07 11:40:31;;;;;;;3.28;1.52;;;21.20;89.40;;;;;;5052139;28;20091;-68
2022/11/07 11:44:01;;;;;;;3.42;1.75;;;21.20;88.70;;;;;;5053248;28;20090;-68
2022/11/07 11:47:19;;;;;;;4.90;1.67;;;21.20;88.90;;;;;;5053355;28;20052;-68
2022/11/07 11:50:47;;;;;;;1.85;1.10;;;21.10;87.90;;;;;;5052904;28;20056;-68
2022/11/07 11:53:51;;;;;;;2.10;1.40;;;21.10;87.40;;;;;;5053498;28;20052;-67
2022/11/07 11:57:03;;;;;;;3.63;1.45;;;21.00;87.20;;;;;;5053100;28;20044;-67
2022/11/07 12:00:18;;;;;;;3.80;1.30;;;20.90;87.50;;;;;;5053413;28;20044;-68
2022/11/07 12:03:33;;;;;;;3.30;1.20;;;20.90;87.90;;;;;;5053021;28;20047;-68
2022/11/07 12:06:39;;;;;;;5.30;1.58;;;20.90;88.30;;;;;;5053171;28;20495;-68
2022/11/07 12:10:09;;;;;;;5.40;1.80;;;21.00;88.80;;;;;;5052831;28;20428;-68
2022/11/07 12:13:40;;;;;;;4.90;1.75;;;21.00;88.80;;;;;;5051984;28;20047;-68
2022/11/07 12:17:05;;;;;;;3.30;1.42;;;21.00;88.60;;;;;;5052928;28;20044;-68
2022/11/07 12:20:16;;;;;;;4.47;1.70;;;20.90;87.90;;;;;;5052438;28;20051;-67
2022/11/07 12:23:44;;;;;;;3.30;1.48;;;20.90;86.30;;;;;;5052685;28;20057;-68
2022/11/07 12:27:10;;;;;;;3.40;1.60;;;20.90;86.20;;;;;;5052793;28;20040;-68
2022/11/07 12:31:06;;;;;;;4.00;1.63;;;20.80;86.90;;;;;;5052386;28;20040;-68
2022/11/07 12:34:29;;;;;;;7.03;2.70;;;20.80;87.50;;;;;;5052870;28;20060;-68
2022/11/07 12:37:59;;;;;;;8.23;2.60;;;20.90;88.20;;;;;;5052233;28;20147;-68
2022/11/07 12:41:23;;;;;;;5.32;2.25;;;20.90;88.60;;;;;;5052164;28;20046;-68
2022/11/07 12:44:44;;;;;;;4.57;2.00;;;20.90;88.30;;;;;;5052328;28;20043;-68
2022/11/07 12:48:02;;;;;;;6.75;3.33;;;20.80;88.80;;;;;;5052564;28;20048;-68
2022/11/07 12:51:09;;;;;;;5.15;2.55;;;20.80;89.30;;;;;;5051916;28;20044;-68
2022/11/07 12:54:25;;;;;;;4.03;1.90;;;20.70;89.00;;;;;;5052374;28;20039;-68
2022/11/07 12:57:32;;;;;;;4.85;1.67;;;20.70;89.00;;;;;;5051879;28;20048;-68
2022/11/07 13:00:36;;;;;;;4.70;1.77;;;20.70;89.20;;;;;;5052154;28;20056;-68
2022/11/07 13:04:12;;;;;;;5.35;1.80;;;20.70;88.90;;;;;;5052073;28;20040;-68
2022/11/07 13:07:45;;;;;;;4.85;2.20;;;20.70;88.50;;;;;;5051818;28;20044;-68
2022/11/07 13:11:26;;;;;;;6.82;2.50;;;20.60;88.70;;;;;;5052106;28;20067;-68
2022/11/07 13:14:38;;;;;;;2.33;1.53;;;20.60;88.50;;;;;;5052034;28;20052;-68
2022/11/07 13:17:46;;;;;;;3.53;1.85;;;20.60;88.70;;;;;;5051505;28;20286;-68
2022/11/07 13:21:05;;;;;;;2.70;1.58;;;20.60;89.10;;;;;;5051380;28;20499;-68
2022/11/07 13:24:21;;;;;;;4.03;1.92;;;20.60;89.40;;;;;;5051855;28;20044;-68
2022/11/07 13:27:32;;;;;;;4.57;1.63;;;20.50;89.50;;;;;;5051770;28;20052;-68
2022/11/07 13:30:38;;;;;;;5.43;1.95;;;20.50;89.20;;;;;;5051552;28;20040;-68
2022/11/07 13:33:42;;;;;;;3.15;1.60;;;20.40;89.00;;;;;;5051576;28;20047;-68
2022/11/07 13:36:48;;;;;;;4.75;2.13;;;20.40;89.50;;;;;;5051619;28;20055;-67
2022/11/07 13:39:59;;;;;;;4.65;1.80;;;20.40;89.50;;;;;;5051257;28;20052;-68
2022/11/07 13:43:10;;;;;;;;;;;20.40;89.40;;;;;;5051556;28;20036;-68
2022/11/07 13:46:44;;;;;;;3.85;2.28;;;20.40;89.70;;;;;;5050969;28;19912;-67
2022/11/07 13:49:49;;;;;;;4.70;2.38;;;20.30;90.00;;;;;;5050761;28;20048;-67
2022/11/07 13:52:57;;;;;;;7.82;2.53;;;20.30;90.20;;;;;;5050796;28;20056;-67
2022/11/07 13:56:28;;;;;;;3.10;2.33;;;20.30;90.30;;;;;;5051363;28;20044;-69
2022/11/07 13:59:42;;;;;;;4.28;2.30;;;20.20;90.30;;;;;;5050286;28;20048;-68
2022/11/07 14:02:57;;;;;;;9.10;3.35;;;20.20;90.50;;;;;;5051044;28;20044;-68
2022/11/07 14:06:01;;;;;;;8.30;3.03;;;20.10;90.70;;;;;;5050963;28;20056;-67
2022/11/07 14:09:06;;;;;;;7.55;3.42;;;20.10;90.90;;;;;;5050896;28;20048;-67
2022/11/07 14:12:21;;;;;;;11.50;3.63;;;20.00;91.10;;;;;;5051098;28;20661;-67
2022/11/07 14:15:25;;;;;;;7.35;3.30;;;20.00;91.30;;;;;;5051227;28;20067;-68
2022/11/07 14:18:36;;;;;;;9.25;2.88;;;19.90;91.40;;;;;;5051109;28;20048;-67
2022/11/07 14:21:44;;;;;;;9.77;3.47;;;19.80;91.30;;;;;;5051358;28;20040;-67
2022/11/07 14:24:57;;;;;;;6.70;2.67;;;19.80;91.40;;;;;;5050744;28;20499;-68
2022/11/07 14:28:04;;;;;;;12.90;3.58;;;19.70;91.60;;;;;;5050683;28;20052;-68
2022/11/07 14:31:20;;;;;;;12.60;4.15;;;19.70;91.80;;;;;;5050676;28;20048;-69
2022/11/07 14:34:24;;;;;;;9.70;4.65;;;19.60;92.00;;;;;;5050854;28;20597;-69
2022/11/07 14:37:32;;;;;;;11.07;4.85;;;19.60;92.10;;;;;;5050725;28;20040;-68
2022/11/07 14:40:38;;;;;;;10.93;4.30;;;19.60;92.10;;;;;;5051029;28;20067;-68
2022/11/07 14:43:42;;;;;;;12.48;3.83;;;19.60;92.10;;;;;;5051301;28;20040;-68
2022/11/07 14:46:47;;;;;;;17.55;4.22;;;19.60;92.10;;;;;;5051244;28;20052;-68
2022/11/07 14:49:52;;;;;;;12.38;3.70;;;19.60;92.10;;;;;;5050842;28;20044;-68
2022/11/07 14:53:13;;;;;;;11.32;3.60;;;19.60;92.10;;;;;;5050854;28;20052;-68
2022/11/07 14:56:21;;;;;;;8.93;3.80;;;19.60;92.20;;;;;;5050945;28;20112;-68
2022/11/07 14:59:32;;;;;;;6.55;3.25;;;19.50;92.30;;;;;;5050593;28;20064;-70
2022/11/07 15:02:36;;;;;;;7.70;3.78;;;19.50;92.40;;;;;;5049597;28;20036;-67
2022/11/07 15:05:40;;;;;;;9.45;3.60;;;19.60;92.40;;;;;;5053545;28;20047;-69
2022/11/07 15:08:55;;;;;;;11.65;3.60;;;19.60;92.60;;;;;;5054256;28;20048;-74
2022/11/07 15:12:00;;;;;;;12.80;3.70;;;19.60;93.00;;;;;;5054083;28;20416;-71
2022/11/07 15:15:16;;;;;;;6.25;2.75;;;19.60;93.30;;;;;;5053717;28;20859;-72
2022/11/07 15:18:25;;;;;;;10.23;3.38;;;19.60;93.30;;;;;;5052983;28;20056;-72
2022/11/07 15:21:35;;;;;;;8.48;2.80;;;19.50;93.30;;;;;;5053371;28;20048;-71
2022/11/07 15:24:45;;;;;;;6.28;2.78;;;19.50;93.40;;;;;;5053447;28;20048;-71
2022/11/07 15:27:49;;;;;;;13.02;2.63;;;19.40;93.40;;;;;;5053311;28;20111;-71
2022/11/07 15:30:55;;;;;;;3.95;2.30;;;19.40;93.30;;;;;;5053524;28;20068;-71
2022/11/07 15:34:00;;;;;;;8.90;2.83;;;19.40;93.30;;;;;;5053602;28;20060;-71
2022/11/07 15:37:14;;;;;;;6.53;2.65;;;19.40;93.30;;;;;;5053671;28;20107;-71
2022/11/07 15:40:18;;;;;;;8.18;2.60;;;19.30;93.40;;;;;;5053796;28;20550;-71
2022/11/07 15:43:22;;;;;;;9.55;3.08;;;19.30;93.70;;;;;;5053291;28;20036;-71
2022/11/07 15:46:36;;;;;;;11.00;2.60;;;19.20;93.60;;;;;;5053460;28;20048;-71
2022/11/07 15:49:40;;;;;;;8.38;2.53;;;19.20;93.50;;;;;;5053161;28;20044;-71
2022/11/07 15:52:45;;;;;;;8.35;2.35;;;19.10;93.50;;;;;;5053242;28;20052;-71
2022/11/07 15:55:52;;;;;;;8.52;2.40;;;19.10;93.60;;;;;;5053173;28;20047;-71
2022/11/07 15:58:56;;;;;;;12.43;2.88;;;19.00;93.60;;;;;;5053355;28;20048;-71
2022/11/07 16:02:00;;;;;;;7.75;2.78;;;19.00;93.70;;;;;;5053183;28;20503;-71
2022/11/07 16:05:05;;;;;;;18.15;4.03;;;18.90;93.80;;;;;;5053494;28;20052;-71
2022/11/07 16:08:15;;;;;;;12.95;3.55;;;18.90;93.90;;;;;;5052915;28;20044;-71
2022/11/07 16:11:19;;;;;;;12.20;4.10;;;18.80;93.90;;;;;;5052031;28;20495;-71
2022/11/07 16:14:23;;;;;;;10.00;2.97;;;18.70;94.00;;;;;;5053012;28;20048;-71
2022/11/07 16:17:27;;;;;;;26.00;4.57;;;18.70;94.10;;;;;;5052560;28;20052;-70